sensor_id;sensor_type;location;lat;lon;timestamp;temperature;humidity
77523;SHT31;66637;-29.628;-49.938;2023-09-19T00:01:08;20.00;87.28
77523;SHT31;66637;-29.628;-49.938;2023-09-19T00:03:40;20.13;87.03
77523;SHT31;66637;-29.628;-49.938;2023-09-19T00:06:12;20.22;86.90
77523;SHT31;66637;-29.628;-49.938;2023-09-19T00:08:46;20.25;86.96
77523;SHT31;66637;-29.628;-49.938;2023-09-19T00:11:19;20.28;86.82
77523;SHT31;66637;-29.628;-49.938;2023-09-19T00:13:51;20.35;86.73
77523;SHT31;66637;-29.628;-49.938;2023-09-19T00:16:23;20.42;86.54
77523;SHT31;66637;-29.628;-49.938;2023-09-19T00:18:53;20.41;86.52
77523;SHT31;66637;-29.628;-49.938;2023-09-19T00:21:25;20.39;86.53
77523;SHT31;66637;-29.628;-49.938;2023-09-19T00:23:57;20.39;86.49
77523;SHT31;66637;-29.628;-49.938;2023-09-19T00:26:28;20.46;86.56
77523;SHT31;66637;-29.628;-49.938;2023-09-19T00:29:01;20.52;86.49
77523;SHT31;66637;-29.628;-49.938;2023-09-19T00:31:39;20.58;86.45
77523;SHT31;66637;-29.628;-49.938;2023-09-19T00:34:10;20.68;86.34
77523;SHT31;66637;-29.628;-49.938;2023-09-19T00:36:42;20.62;86.56
77523;SHT31;66637;-29.628;-49.938;2023-09-19T00:39:13;20.65;86.49
77523;SHT31;66637;-29.628;-49.938;2023-09-19T00:41:46;20.65;86.76
77523;SHT31;66637;-29.628;-49.938;2023-09-19T00:44:18;20.56;87.09
77523;SHT31;66637;-29.628;-49.938;2023-09-19T00:46:52;20.59;87.09
77523;SHT31;66637;-29.628;-49.938;2023-09-19T00:49:24;20.58;86.90
77523;SHT31;66637;-29.628;-49.938;2023-09-19T00:51:56;20.55;87.02
77523;SHT31;66637;-29.628;-49.938;2023-09-19T00:54:27;20.55;87.28
77523;SHT31;66637;-29.628;-49.938;2023-09-19T00:57:00;20.49;87.38
77523;SHT31;66637;-29.628;-49.938;2023-09-19T00:59:31;20.51;87.18
77523;SHT31;66637;-29.628;-49.938;2023-09-19T01:02:03;20.56;87.31
77523;SHT31;66637;-29.628;-49.938;2023-09-19T01:04:34;20.56;87.30
77523;SHT31;66637;-29.628;-49.938;2023-09-19T01:07:07;20.56;87.18
77523;SHT31;66637;-29.628;-49.938;2023-09-19T01:09:39;20.55;87.45
77523;SHT31;66637;-29.628;-49.938;2023-09-19T01:12:24;20.58;87.56
77523;SHT31;66637;-29.628;-49.938;2023-09-19T01:15:01;20.61;87.49
77523;SHT31;66637;-29.628;-49.938;2023-09-19T01:21:05;20.66;87.56
77523;SHT31;66637;-29.628;-49.938;2023-09-19T01:26:47;20.55;87.72
77523;SHT31;66637;-29.628;-49.938;2023-09-19T01:32:03;20.66;87.58
77523;SHT31;66637;-29.628;-49.938;2023-09-19T01:37:24;20.39;87.64
77523;SHT31;66637;-29.628;-49.938;2023-09-19T01:40:03;20.31;87.68
77523;SHT31;66637;-29.628;-49.938;2023-09-19T01:45:44;20.53;87.75
77523;SHT31;66637;-29.628;-49.938;2023-09-19T01:51:06;20.64;87.60
77523;SHT31;66637;-29.628;-49.938;2023-09-19T01:56:23;20.65;87.62
77523;SHT31;66637;-29.628;-49.938;2023-09-19T01:59:02;20.72;87.56
77523;SHT31;66637;-29.628;-49.938;2023-09-19T02:01:37;20.66;87.40
77523;SHT31;66637;-29.628;-49.938;2023-09-19T02:04:09;20.66;87.35
77523;SHT31;66637;-29.628;-49.938;2023-09-19T02:06:44;20.68;87.27
77523;SHT31;66637;-29.628;-49.938;2023-09-19T02:09:20;20.59;87.28
77523;SHT31;66637;-29.628;-49.938;2023-09-19T02:11:53;20.59;87.34
77523;SHT31;66637;-29.628;-49.938;2023-09-19T02:14:28;20.62;87.26
77523;SHT31;66637;-29.628;-49.938;2023-09-19T02:16:59;20.65;87.23
77523;SHT31;66637;-29.628;-49.938;2023-09-19T02:19:31;20.71;87.19
77523;SHT31;66637;-29.628;-49.938;2023-09-19T02:22:02;20.75;87.05
77523;SHT31;66637;-29.628;-49.938;2023-09-19T02:24:38;20.69;87.13
77523;SHT31;66637;-29.628;-49.938;2023-09-19T02:27:08;20.66;87.24
77523;SHT31;66637;-29.628;-49.938;2023-09-19T02:29:43;20.66;87.33
77523;SHT31;66637;-29.628;-49.938;2023-09-19T02:32:13;20.68;87.30
77523;SHT31;66637;-29.628;-49.938;2023-09-19T02:34:44;20.65;87.21
77523;SHT31;66637;-29.628;-49.938;2023-09-19T02:37:15;20.62;87.32
77523;SHT31;66637;-29.628;-49.938;2023-09-19T02:39:46;20.59;87.39
77523;SHT31;66637;-29.628;-49.938;2023-09-19T02:42:17;20.56;87.49
77523;SHT31;66637;-29.628;-49.938;2023-09-19T02:44:50;20.59;87.55
77523;SHT31;66637;-29.628;-49.938;2023-09-19T02:47:22;20.55;87.68
77523;SHT31;66637;-29.628;-49.938;2023-09-19T02:49:56;20.56;87.76
77523;SHT31;66637;-29.628;-49.938;2023-09-19T02:52:28;20.56;87.80
77523;SHT31;66637;-29.628;-49.938;2023-09-19T02:54:58;20.59;87.73
77523;SHT31;66637;-29.628;-49.938;2023-09-19T02:57:33;20.56;87.82
77523;SHT31;66637;-29.628;-49.938;2023-09-19T03:00:07;20.53;87.98
77523;SHT31;66637;-29.628;-49.938;2023-09-19T03:02:38;20.49;88.05
77523;SHT31;66637;-29.628;-49.938;2023-09-19T03:05:14;20.53;88.09
77523;SHT31;66637;-29.628;-49.938;2023-09-19T03:07:50;20.52;88.00
77523;SHT31;66637;-29.628;-49.938;2023-09-19T03:10:22;20.55;88.07
77523;SHT31;66637;-29.628;-49.938;2023-09-19T03:12:57;20.55;87.96
77523;SHT31;66637;-29.628;-49.938;2023-09-19T03:15:30;20.56;88.01
77523;SHT31;66637;-29.628;-49.938;2023-09-19T03:18:01;20.58;87.98
77523;SHT31;66637;-29.628;-49.938;2023-09-19T03:20:33;20.65;87.79
77523;SHT31;66637;-29.628;-49.938;2023-09-19T03:23:06;20.66;87.82
77523;SHT31;66637;-29.628;-49.938;2023-09-19T03:25:38;20.71;87.77
77523;SHT31;66637;-29.628;-49.938;2023-09-19T03:28:10;20.68;87.65
77523;SHT31;66637;-29.628;-49.938;2023-09-19T03:30:45;20.65;87.66
77523;SHT31;66637;-29.628;-49.938;2023-09-19T03:33:16;20.71;87.50
77523;SHT31;66637;-29.628;-49.938;2023-09-19T03:35:52;20.80;87.11
77523;SHT31;66637;-29.628;-49.938;2023-09-19T03:38:27;20.86;86.88
77523;SHT31;66637;-29.628;-49.938;2023-09-19T03:41:03;20.90;86.59
77523;SHT31;66637;-29.628;-49.938;2023-09-19T03:43:36;20.95;86.35
77523;SHT31;66637;-29.628;-49.938;2023-09-19T03:46:07;20.97;86.17
77523;SHT31;66637;-29.628;-49.938;2023-09-19T03:48:40;21.02;86.00
77523;SHT31;66637;-29.628;-49.938;2023-09-19T03:51:13;21.03;85.77
77523;SHT31;66637;-29.628;-49.938;2023-09-19T03:53:44;21.04;85.78
77523;SHT31;66637;-29.628;-49.938;2023-09-19T03:56:15;21.07;85.44
77523;SHT31;66637;-29.628;-49.938;2023-09-19T03:58:46;21.06;85.40
77523;SHT31;66637;-29.628;-49.938;2023-09-19T04:01:17;21.04;85.26
77523;SHT31;66637;-29.628;-49.938;2023-09-19T04:03:49;21.03;85.07
77523;SHT31;66637;-29.628;-49.938;2023-09-19T04:06:22;21.04;84.80
77523;SHT31;66637;-29.628;-49.938;2023-09-19T04:08:53;21.11;84.63
77523;SHT31;66637;-29.628;-49.938;2023-09-19T04:11:24;21.13;84.49
77523;SHT31;66637;-29.628;-49.938;2023-09-19T04:13:56;21.20;84.36
77523;SHT31;66637;-29.628;-49.938;2023-09-19T04:16:28;21.22;84.32
77523;SHT31;66637;-29.628;-49.938;2023-09-19T04:18:58;21.24;84.02
77523;SHT31;66637;-29.628;-49.938;2023-09-19T04:21:30;21.31;83.86
77523;SHT31;66637;-29.628;-49.938;2023-09-19T04:24:00;21.33;83.75
77523;SHT31;66637;-29.628;-49.938;2023-09-19T04:26:31;21.38;83.45
77523;SHT31;66637;-29.628;-49.938;2023-09-19T04:29:03;21.47;83.23
77523;SHT31;66637;-29.628;-49.938;2023-09-19T04:31:35;21.53;82.87
77523;SHT31;66637;-29.628;-49.938;2023-09-19T04:34:11;21.58;82.59
77523;SHT31;66637;-29.628;-49.938;2023-09-19T04:36:47;21.61;82.57
77523;SHT31;66637;-29.628;-49.938;2023-09-19T04:39:18;21.64;82.30
77523;SHT31;66637;-29.628;-49.938;2023-09-19T04:41:49;21.70;82.27
77523;SHT31;66637;-29.628;-49.938;2023-09-19T04:44:21;21.67;82.25
77523;SHT31;66637;-29.628;-49.938;2023-09-19T04:46:52;21.65;82.33
77523;SHT31;66637;-29.628;-49.938;2023-09-19T04:49:24;21.70;82.04
77523;SHT31;66637;-29.628;-49.938;2023-09-19T04:51:54;21.78;81.65
77523;SHT31;66637;-29.628;-49.938;2023-09-19T04:54:26;21.81;81.45
77523;SHT31;66637;-29.628;-49.938;2023-09-19T04:56:57;21.90;81.18
77523;SHT31;66637;-29.628;-49.938;2023-09-19T04:59:29;21.91;81.05
77523;SHT31;66637;-29.628;-49.938;2023-09-19T05:02:01;21.90;81.04
77523;SHT31;66637;-29.628;-49.938;2023-09-19T05:04:31;21.92;80.95
77523;SHT31;66637;-29.628;-49.938;2023-09-19T05:07:02;22.01;80.49
77523;SHT31;66637;-29.628;-49.938;2023-09-19T05:09:33;22.11;80.05
77523;SHT31;66637;-29.628;-49.938;2023-09-19T05:12:04;22.21;79.73
77523;SHT31;66637;-29.628;-49.938;2023-09-19T05:14:37;22.29;79.42
77523;SHT31;66637;-29.628;-49.938;2023-09-19T05:17:10;22.29;79.39
77523;SHT31;66637;-29.628;-49.938;2023-09-19T05:19:40;22.36;79.05
77523;SHT31;66637;-29.628;-49.938;2023-09-19T05:22:11;22.42;78.91
77523;SHT31;66637;-29.628;-49.938;2023-09-19T05:24:42;22.41;78.81
77523;SHT31;66637;-29.628;-49.938;2023-09-19T05:27:14;22.42;78.76
77523;SHT31;66637;-29.628;-49.938;2023-09-19T05:29:47;22.45;78.72
77523;SHT31;66637;-29.628;-49.938;2023-09-19T05:32:19;22.43;78.51
77523;SHT31;66637;-29.628;-49.938;2023-09-19T05:34:49;22.49;78.36
77523;SHT31;66637;-29.628;-49.938;2023-09-19T05:37:23;22.49;78.36
77523;SHT31;66637;-29.628;-49.938;2023-09-19T05:39:54;22.55;78.07
77523;SHT31;66637;-29.628;-49.938;2023-09-19T05:42:24;22.64;77.65
77523;SHT31;66637;-29.628;-49.938;2023-09-19T05:44:55;22.69;77.66
77523;SHT31;66637;-29.628;-49.938;2023-09-19T05:47:26;22.66;77.86
77523;SHT31;66637;-29.628;-49.938;2023-09-19T05:49:58;22.60;77.93
77523;SHT31;66637;-29.628;-49.938;2023-09-19T05:52:29;22.62;77.95
77523;SHT31;66637;-29.628;-49.938;2023-09-19T05:55:00;22.62;77.87
77523;SHT31;66637;-29.628;-49.938;2023-09-19T05:57:32;22.62;77.84
77523;SHT31;66637;-29.628;-49.938;2023-09-19T06:00:04;22.66;77.84
77523;SHT31;66637;-29.628;-49.938;2023-09-19T06:02:40;22.67;77.69
77523;SHT31;66637;-29.628;-49.938;2023-09-19T06:05:12;22.72;77.66
77523;SHT31;66637;-29.628;-49.938;2023-09-19T06:07:42;22.74;77.49
77523;SHT31;66637;-29.628;-49.938;2023-09-19T06:10:13;22.76;77.38
77523;SHT31;66637;-29.628;-49.938;2023-09-19T06:12:45;22.79;77.28
77523;SHT31;66637;-29.628;-49.938;2023-09-19T06:15:17;22.82;77.21
77523;SHT31;66637;-29.628;-49.938;2023-09-19T06:17:54;22.80;77.30
77523;SHT31;66637;-29.628;-49.938;2023-09-19T06:20:26;22.74;77.46
77523;SHT31;66637;-29.628;-49.938;2023-09-19T06:22:57;22.72;77.50
77523;SHT31;66637;-29.628;-49.938;2023-09-19T06:25:28;22.70;77.50
77523;SHT31;66637;-29.628;-49.938;2023-09-19T06:28:02;22.66;77.53
77523;SHT31;66637;-29.628;-49.938;2023-09-19T06:30:36;22.64;77.56
77523;SHT31;66637;-29.628;-49.938;2023-09-19T06:33:09;22.63;77.57
77523;SHT31;66637;-29.628;-49.938;2023-09-19T06:35:47;22.63;77.43
77523;SHT31;66637;-29.628;-49.938;2023-09-19T06:38:17;22.64;77.32
77523;SHT31;66637;-29.628;-49.938;2023-09-19T06:40:49;22.59;77.31
77523;SHT31;66637;-29.628;-49.938;2023-09-19T06:43:21;22.57;77.28
77523;SHT31;66637;-29.628;-49.938;2023-09-19T06:45:51;22.55;77.55
77523;SHT31;66637;-29.628;-49.938;2023-09-19T06:48:26;22.52;77.48
77523;SHT31;66637;-29.628;-49.938;2023-09-19T06:51:00;22.53;77.38
77523;SHT31;66637;-29.628;-49.938;2023-09-19T06:53:34;22.55;77.22
77523;SHT31;66637;-29.628;-49.938;2023-09-19T06:56:07;22.62;77.07
77523;SHT31;66637;-29.628;-49.938;2023-09-19T06:58:37;22.64;76.89
77523;SHT31;66637;-29.628;-49.938;2023-09-19T07:01:09;22.67;76.81
77523;SHT31;66637;-29.628;-49.938;2023-09-19T07:03:40;22.69;76.75
77523;SHT31;66637;-29.628;-49.938;2023-09-19T07:06:10;22.69;76.88
77523;SHT31;66637;-29.628;-49.938;2023-09-19T07:08:43;22.66;77.00
77523;SHT31;66637;-29.628;-49.938;2023-09-19T07:11:15;22.66;76.94
77523;SHT31;66637;-29.628;-49.938;2023-09-19T07:13:46;22.62;76.95
77523;SHT31;66637;-29.628;-49.938;2023-09-19T07:16:17;22.62;76.83
77523;SHT31;66637;-29.628;-49.938;2023-09-19T07:18:58;22.70;77.57
77523;SHT31;66637;-29.628;-49.938;2023-09-19T07:21:30;22.62;76.77
77523;SHT31;66637;-29.628;-49.938;2023-09-19T07:24:04;22.69;76.58
77523;SHT31;66637;-29.628;-49.938;2023-09-19T07:26:35;22.66;76.65
77523;SHT31;66637;-29.628;-49.938;2023-09-19T07:29:05;22.64;76.67
77523;SHT31;66637;-29.628;-49.938;2023-09-19T07:31:36;22.60;76.77
77523;SHT31;66637;-29.628;-49.938;2023-09-19T07:34:07;22.60;76.84
77523;SHT31;66637;-29.628;-49.938;2023-09-19T07:36:40;22.59;76.95
77523;SHT31;66637;-29.628;-49.938;2023-09-19T07:39:11;22.60;76.78
77523;SHT31;66637;-29.628;-49.938;2023-09-19T07:41:51;22.59;76.92
77523;SHT31;66637;-29.628;-49.938;2023-09-19T07:44:21;22.46;77.36
77523;SHT31;66637;-29.628;-49.938;2023-09-19T07:46:53;22.25;77.91
77523;SHT31;66637;-29.628;-49.938;2023-09-19T07:49:25;21.81;78.96
77523;SHT31;66637;-29.628;-49.938;2023-09-19T07:51:56;21.50;79.82
77523;SHT31;66637;-29.628;-49.938;2023-09-19T07:54:28;21.29;80.57
77523;SHT31;66637;-29.628;-49.938;2023-09-19T07:57:06;21.16;81.09
77523;SHT31;66637;-29.628;-49.938;2023-09-19T07:59:37;21.10;81.36
77523;SHT31;66637;-29.628;-49.938;2023-09-19T08:02:08;20.93;81.77
77523;SHT31;66637;-29.628;-49.938;2023-09-19T08:04:46;20.75;82.18
77523;SHT31;66637;-29.628;-49.938;2023-09-19T08:07:17;20.68;82.56
77523;SHT31;66637;-29.628;-49.938;2023-09-19T08:09:48;20.58;82.63
77523;SHT31;66637;-29.628;-49.938;2023-09-19T08:12:19;20.55;83.00
77523;SHT31;66637;-29.628;-49.938;2023-09-19T08:14:54;20.58;83.18
77523;SHT31;66637;-29.628;-49.938;2023-09-19T08:17:25;20.65;83.23
77523;SHT31;66637;-29.628;-49.938;2023-09-19T08:19:55;20.71;83.21
77523;SHT31;66637;-29.628;-49.938;2023-09-19T08:22:27;20.53;83.28
77523;SHT31;66637;-29.628;-49.938;2023-09-19T08:25:00;20.07;83.93
77523;SHT31;66637;-29.628;-49.938;2023-09-19T08:27:34;19.71;84.93
77523;SHT31;66637;-29.628;-49.938;2023-09-19T08:30:06;19.80;85.07
77523;SHT31;66637;-29.628;-49.938;2023-09-19T08:32:37;19.73;85.28
77523;SHT31;66637;-29.628;-49.938;2023-09-19T08:35:07;19.70;85.56
77523;SHT31;66637;-29.628;-49.938;2023-09-19T08:37:39;19.73;85.60
77523;SHT31;66637;-29.628;-49.938;2023-09-19T08:40:11;19.84;85.45
77523;SHT31;66637;-29.628;-49.938;2023-09-19T08:42:52;19.88;85.49
77523;SHT31;66637;-29.628;-49.938;2023-09-19T08:45:25;19.94;85.53
77523;SHT31;66637;-29.628;-49.938;2023-09-19T08:50:49;19.75;85.67
77523;SHT31;66637;-29.628;-49.938;2023-09-19T08:53:43;19.67;85.80
77523;SHT31;66637;-29.628;-49.938;2023-09-19T08:56:19;19.63;86.03
77523;SHT31;66637;-29.628;-49.938;2023-09-19T08:58:58;19.70;86.08
77523;SHT31;66637;-29.628;-49.938;2023-09-19T09:01:31;19.75;85.89
77523;SHT31;66637;-29.628;-49.938;2023-09-19T09:04:02;19.81;85.82
77523;SHT31;66637;-29.628;-49.938;2023-09-19T09:06:34;19.85;85.68
77523;SHT31;66637;-29.628;-49.938;2023-09-19T09:09:07;19.84;85.63
77523;SHT31;66637;-29.628;-49.938;2023-09-19T09:11:40;19.84;85.51
77523;SHT31;66637;-29.628;-49.938;2023-09-19T09:14:14;19.74;85.76
77523;SHT31;66637;-29.628;-49.938;2023-09-19T09:16:44;19.66;86.05
77523;SHT31;66637;-29.628;-49.938;2023-09-19T09:19:15;19.54;86.29
77523;SHT31;66637;-29.628;-49.938;2023-09-19T09:21:54;19.47;86.61
77523;SHT31;66637;-29.628;-49.938;2023-09-19T09:24:36;19.47;86.44
77523;SHT31;66637;-29.628;-49.938;2023-09-19T09:27:13;19.49;86.32
77523;SHT31;66637;-29.628;-49.938;2023-09-19T09:29:49;19.49;86.49
77523;SHT31;66637;-29.628;-49.938;2023-09-19T09:32:21;19.45;86.62
77523;SHT31;66637;-29.628;-49.938;2023-09-19T09:34:54;19.49;86.36
77523;SHT31;66637;-29.628;-49.938;2023-09-19T09:37:29;19.63;85.87
77523;SHT31;66637;-29.628;-49.938;2023-09-19T09:40:06;19.63;85.94
77523;SHT31;66637;-29.628;-49.938;2023-09-19T09:42:49;19.74;85.34
77523;SHT31;66637;-29.628;-49.938;2023-09-19T09:45:23;19.63;86.31
77523;SHT31;66637;-29.628;-49.938;2023-09-19T09:48:06;19.62;85.59
77523;SHT31;66637;-29.628;-49.938;2023-09-19T09:50:48;19.57;86.88
77523;SHT31;66637;-29.628;-49.938;2023-09-19T09:53:30;19.59;85.69
77523;SHT31;66637;-29.628;-49.938;2023-09-19T09:56:07;19.67;86.29
77523;SHT31;66637;-29.628;-49.938;2023-09-19T09:58:51;19.59;86.19
77523;SHT31;66637;-29.628;-49.938;2023-09-19T10:01:47;19.66;86.10
77523;SHT31;66637;-29.628;-49.938;2023-09-19T10:04:28;19.52;87.39
77523;SHT31;66637;-29.628;-49.938;2023-09-19T10:07:08;19.50;86.68
77523;SHT31;66637;-29.628;-49.938;2023-09-19T10:09:48;19.54;86.68
77523;SHT31;66637;-29.628;-49.938;2023-09-19T10:12:21;19.45;87.39
77523;SHT31;66637;-29.628;-49.938;2023-09-19T10:14:52;19.40;87.44
77523;SHT31;66637;-29.628;-49.938;2023-09-19T10:17:24;19.33;88.36
77523;SHT31;66637;-29.628;-49.938;2023-09-19T10:19:57;19.32;88.22
77523;SHT31;66637;-29.628;-49.938;2023-09-19T10:22:28;19.29;88.30
77523;SHT31;66637;-29.628;-49.938;2023-09-19T10:25:04;19.22;88.59
77523;SHT31;66637;-29.628;-49.938;2023-09-19T10:27:39;19.26;88.50
77523;SHT31;66637;-29.628;-49.938;2023-09-19T10:30:13;19.26;88.48
77523;SHT31;66637;-29.628;-49.938;2023-09-19T10:32:53;19.19;88.58
77523;SHT31;66637;-29.628;-49.938;2023-09-19T10:35:26;19.19;88.31
77523;SHT31;66637;-29.628;-49.938;2023-09-19T10:38:00;19.24;88.33
77523;SHT31;66637;-29.628;-49.938;2023-09-19T10:40:35;19.20;88.27
77523;SHT31;66637;-29.628;-49.938;2023-09-19T10:43:19;19.18;88.21
77523;SHT31;66637;-29.628;-49.938;2023-09-19T10:45:50;19.19;88.30
77523;SHT31;66637;-29.628;-49.938;2023-09-19T10:48:23;19.16;88.35
77523;SHT31;66637;-29.628;-49.938;2023-09-19T10:53:55;19.10;88.33
77523;SHT31;66637;-29.628;-49.938;2023-09-19T10:56:32;19.12;88.55
77523;SHT31;66637;-29.628;-49.938;2023-09-19T10:59:11;19.12;88.72
77523;SHT31;66637;-29.628;-49.938;2023-09-19T11:07:09;19.30;88.82
77523;SHT31;66637;-29.628;-49.938;2023-09-19T11:09:53;19.37;88.76
77523;SHT31;66637;-29.628;-49.938;2023-09-19T11:16:02;19.50;88.81
77523;SHT31;66637;-29.628;-49.938;2023-09-19T11:27:10;19.62;88.91
77523;SHT31;66637;-29.628;-49.938;2023-09-19T11:29:44;19.60;89.17
77523;SHT31;66637;-29.628;-49.938;2023-09-19T11:32:15;19.60;89.28
77523;SHT31;66637;-29.628;-49.938;2023-09-19T11:34:48;19.62;89.15
77523;SHT31;66637;-29.628;-49.938;2023-09-19T11:40:11;19.62;88.98
77523;SHT31;66637;-29.628;-49.938;2023-09-19T11:42:49;19.53;88.79
77523;SHT31;66637;-29.628;-49.938;2023-09-19T11:48:27;19.46;88.76
77523;SHT31;66637;-29.628;-49.938;2023-09-19T11:51:00;19.39;88.89
77523;SHT31;66637;-29.628;-49.938;2023-09-19T11:53:38;19.34;88.98
77523;SHT31;66637;-29.628;-49.938;2023-09-19T11:56:10;19.32;89.04
77523;SHT31;66637;-29.628;-49.938;2023-09-19T11:58:42;19.26;89.07
77523;SHT31;66637;-29.628;-49.938;2023-09-19T12:01:14;19.26;88.98
77523;SHT31;66637;-29.628;-49.938;2023-09-19T12:03:54;19.29;89.01
77523;SHT31;66637;-29.628;-49.938;2023-09-19T12:06:28;19.46;89.09
77523;SHT31;66637;-29.628;-49.938;2023-09-19T12:09:25;19.57;89.07
77523;SHT31;66637;-29.628;-49.938;2023-09-19T12:11:57;19.69;89.10
77523;SHT31;66637;-29.628;-49.938;2023-09-19T12:14:29;19.75;89.18
77523;SHT31;66637;-29.628;-49.938;2023-09-19T12:17:00;19.75;89.11
77523;SHT31;66637;-29.628;-49.938;2023-09-19T12:19:33;19.77;89.10
77523;SHT31;66637;-29.628;-49.938;2023-09-19T12:22:04;19.75;89.06
77523;SHT31;66637;-29.628;-49.938;2023-09-19T12:24:35;19.66;88.94
77523;SHT31;66637;-29.628;-49.938;2023-09-19T12:27:08;19.66;88.77
77523;SHT31;66637;-29.628;-49.938;2023-09-19T12:29:44;19.57;88.59
77523;SHT31;66637;-29.628;-49.938;2023-09-19T12:32:16;19.47;88.58
77523;SHT31;66637;-29.628;-49.938;2023-09-19T12:34:53;19.50;88.54
77523;SHT31;66637;-29.628;-49.938;2023-09-19T12:37:24;19.50;88.56
77523;SHT31;66637;-29.628;-49.938;2023-09-19T12:40:08;19.50;88.56
77523;SHT31;66637;-29.628;-49.938;2023-09-19T12:42:48;19.59;88.43
77523;SHT31;66637;-29.628;-49.938;2023-09-19T12:45:20;19.59;88.46
77523;SHT31;66637;-29.628;-49.938;2023-09-19T12:51:06;19.73;88.49
77523;SHT31;66637;-29.628;-49.938;2023-09-19T12:53:44;19.78;88.60
77523;SHT31;66637;-29.628;-49.938;2023-09-19T12:56:17;19.85;88.52
77523;SHT31;66637;-29.628;-49.938;2023-09-19T12:58:56;19.91;88.59
77523;SHT31;66637;-29.628;-49.938;2023-09-19T13:01:29;19.93;88.39
77523;SHT31;66637;-29.628;-49.938;2023-09-19T13:04:20;19.95;88.62
77523;SHT31;66637;-29.628;-49.938;2023-09-19T13:07:03;19.98;88.60
77523;SHT31;66637;-29.628;-49.938;2023-09-19T13:09:35;20.03;88.50
77523;SHT31;66637;-29.628;-49.938;2023-09-19T13:12:37;20.10;88.64
77523;SHT31;66637;-29.628;-49.938;2023-09-19T13:15:09;20.05;88.41
77523;SHT31;66637;-29.628;-49.938;2023-09-19T13:17:50;20.11;88.34
77523;SHT31;66637;-29.628;-49.938;2023-09-19T13:23:28;20.18;88.36
77523;SHT31;66637;-29.628;-49.938;2023-09-19T13:25:59;20.18;88.34
77523;SHT31;66637;-29.628;-49.938;2023-09-19T13:28:31;20.22;88.31
77523;SHT31;66637;-29.628;-49.938;2023-09-19T13:31:01;20.24;88.35
77523;SHT31;66637;-29.628;-49.938;2023-09-19T13:33:33;20.21;88.37
77523;SHT31;66637;-29.628;-49.938;2023-09-19T13:36:05;20.22;88.40
77523;SHT31;66637;-29.628;-49.938;2023-09-19T13:38:36;20.25;88.31
77523;SHT31;66637;-29.628;-49.938;2023-09-19T13:41:10;20.29;88.45
77523;SHT31;66637;-29.628;-49.938;2023-09-19T13:43:42;20.28;88.33
77523;SHT31;66637;-29.628;-49.938;2023-09-19T13:46:17;20.22;88.47
77523;SHT31;66637;-29.628;-49.938;2023-09-19T13:48:55;20.24;88.47
77523;SHT31;66637;-29.628;-49.938;2023-09-19T13:51:31;20.18;88.54
77523;SHT31;66637;-29.628;-49.938;2023-09-19T13:54:01;20.21;88.55
77523;SHT31;66637;-29.628;-49.938;2023-09-19T13:56:35;20.21;88.68
77523;SHT31;66637;-29.628;-49.938;2023-09-19T13:59:07;20.24;88.67
77523;SHT31;66637;-29.628;-49.938;2023-09-19T14:01:38;20.22;88.62
77523;SHT31;66637;-29.628;-49.938;2023-09-19T14:04:09;20.28;88.61
77523;SHT31;66637;-29.628;-49.938;2023-09-19T14:06:44;20.32;88.59
77523;SHT31;66637;-29.628;-49.938;2023-09-19T14:09:16;20.36;88.49
77523;SHT31;66637;-29.628;-49.938;2023-09-19T14:11:49;20.39;88.38
77523;SHT31;66637;-29.628;-49.938;2023-09-19T14:14:23;20.42;88.38
77523;SHT31;66637;-29.628;-49.938;2023-09-19T14:16:54;20.42;88.27
77523;SHT31;66637;-29.628;-49.938;2023-09-19T14:19:27;20.44;88.39
77523;SHT31;66637;-29.628;-49.938;2023-09-19T14:21:57;20.45;88.31
77523;SHT31;66637;-29.628;-49.938;2023-09-19T14:24:32;20.51;88.29
77523;SHT31;66637;-29.628;-49.938;2023-09-19T14:27:04;20.51;88.18
77523;SHT31;66637;-29.628;-49.938;2023-09-19T14:29:36;20.51;88.23
77523;SHT31;66637;-29.628;-49.938;2023-09-19T14:32:08;20.48;88.27
77523;SHT31;66637;-29.628;-49.938;2023-09-19T14:34:38;20.51;88.20
77523;SHT31;66637;-29.628;-49.938;2023-09-19T14:37:12;20.49;88.11
77523;SHT31;66637;-29.628;-49.938;2023-09-19T14:39:44;20.51;88.06
77523;SHT31;66637;-29.628;-49.938;2023-09-19T14:42:15;20.56;88.24
77523;SHT31;66637;-29.628;-49.938;2023-09-19T14:44:48;20.61;88.07
77523;SHT31;66637;-29.628;-49.938;2023-09-19T14:47:20;20.62;88.10
77523;SHT31;66637;-29.628;-49.938;2023-09-19T14:49:50;20.65;88.04
77523;SHT31;66637;-29.628;-49.938;2023-09-19T14:52:22;20.62;88.03
77523;SHT31;66637;-29.628;-49.938;2023-09-19T14:54:53;20.64;87.93
77523;SHT31;66637;-29.628;-49.938;2023-09-19T14:57:23;20.68;87.87
77523;SHT31;66637;-29.628;-49.938;2023-09-19T14:59:53;20.68;87.87
77523;SHT31;66637;-29.628;-49.938;2023-09-19T15:02:24;20.62;87.84
77523;SHT31;66637;-29.628;-49.938;2023-09-19T15:04:56;20.58;87.77
77523;SHT31;66637;-29.628;-49.938;2023-09-19T15:07:27;20.55;87.82
77523;SHT31;66637;-29.628;-49.938;2023-09-19T15:09:59;20.58;87.77
77523;SHT31;66637;-29.628;-49.938;2023-09-19T15:12:31;20.62;87.73
77523;SHT31;66637;-29.628;-49.938;2023-09-19T15:15:03;20.66;87.42
77523;SHT31;66637;-29.628;-49.938;2023-09-19T15:17:36;20.61;87.43
77523;SHT31;66637;-29.628;-49.938;2023-09-19T15:20:08;20.55;87.41
77523;SHT31;66637;-29.628;-49.938;2023-09-19T15:22:45;20.61;87.56
77523;SHT31;66637;-29.628;-49.938;2023-09-19T15:25:16;20.59;87.37
77523;SHT31;66637;-29.628;-49.938;2023-09-19T15:27:46;20.56;87.56
77523;SHT31;66637;-29.628;-49.938;2023-09-19T15:30:17;20.56;87.49
77523;SHT31;66637;-29.628;-49.938;2023-09-19T15:32:49;20.52;87.43
77523;SHT31;66637;-29.628;-49.938;2023-09-19T15:35:21;20.55;87.56
77523;SHT31;66637;-29.628;-49.938;2023-09-19T15:37:51;20.52;87.37
77523;SHT31;66637;-29.628;-49.938;2023-09-19T15:40:23;20.51;87.41
77523;SHT31;66637;-29.628;-49.938;2023-09-19T15:42:56;20.52;87.56
77523;SHT31;66637;-29.628;-49.938;2023-09-19T15:45:27;20.41;87.46
77523;SHT31;66637;-29.628;-49.938;2023-09-19T15:47:57;20.35;87.44
77523;SHT31;66637;-29.628;-49.938;2023-09-19T15:50:29;20.31;87.76
77523;SHT31;66637;-29.628;-49.938;2023-09-19T15:53:00;20.26;87.58
77523;SHT31;66637;-29.628;-49.938;2023-09-19T15:55:30;20.22;87.63
77523;SHT31;66637;-29.628;-49.938;2023-09-19T15:58:01;20.24;87.88
77523;SHT31;66637;-29.628;-49.938;2023-09-19T16:00:33;20.24;87.91
77523;SHT31;66637;-29.628;-49.938;2023-09-19T16:03:07;20.31;88.14
77523;SHT31;66637;-29.628;-49.938;2023-09-19T16:05:38;20.31;87.95
77523;SHT31;66637;-29.628;-49.938;2023-09-19T16:08:09;20.28;88.04
77523;SHT31;66637;-29.628;-49.938;2023-09-19T16:10:44;20.28;88.14
77523;SHT31;66637;-29.628;-49.938;2023-09-19T16:13:19;20.28;88.01
77523;SHT31;66637;-29.628;-49.938;2023-09-19T16:15:50;20.31;88.09
77523;SHT31;66637;-29.628;-49.938;2023-09-19T16:18:20;20.25;88.12
77523;SHT31;66637;-29.628;-49.938;2023-09-19T16:20:51;20.24;88.11